createdAt,value
2022-10-18T00:01:46.040Z,102105.48
2022-10-18T00:04:14.386Z,102111.66
2022-10-18T00:06:43.645Z,102116.77
2022-10-18T00:09:13.130Z,102114.05
2022-10-18T00:11:41.765Z,102119.23
2022-10-18T00:14:10.150Z,102120.77
2022-10-18T00:16:38.788Z,102113.67
2022-10-18T00:19:07.105Z,102111.58
2022-10-18T00:21:35.921Z,102113.84
2022-10-18T00:24:04.906Z,102112.77
2022-10-18T00:26:33.308Z,102109.77
2022-10-18T00:29:05.163Z,102111.86
2022-10-18T00:31:38.704Z,102108.98
2022-10-18T00:34:13.833Z,102095.38
2022-10-18T00:36:43.724Z,102106.73
2022-10-18T00:39:17.738Z,102110.61
2022-10-18T00:41:46.674Z,102111.16
2022-10-18T00:44:17.954Z,102109.42
2022-10-18T00:46:49.022Z,102103.08
2022-10-18T00:49:37.717Z,102103.88
2022-10-18T00:52:17.358Z,102100.85
2022-10-18T00:54:47.478Z,102091.74
2022-10-18T00:57:15.989Z,102095.77
2022-10-18T01:02:45.027Z,102102.30
2022-10-18T01:05:15.457Z,102101.10
2022-10-18T01:07:59.964Z,102101.23
2022-10-18T01:10:42.289Z,102098.27
2022-10-18T01:13:36.174Z,102098.08
2022-10-18T01:16:19.315Z,102092.93
2022-10-18T01:19:32.024Z,102098.13
2022-10-18T01:22:14.394Z,102090.21
2022-10-18T01:24:54.454Z,102086.46
2022-10-18T01:27:44.486Z,102085.40
2022-10-18T01:30:34.255Z,102089.95
2022-10-18T01:33:17.682Z,102088.80
2022-10-18T01:36:03.619Z,102088.88
2022-10-18T01:38:33.348Z,102073.05
2022-10-18T01:41:03.970Z,102089.44
2022-10-18T01:43:34.233Z,102092.21
2022-10-18T01:46:04.405Z,102083.66
2022-10-18T01:48:33.738Z,102076.54
2022-10-18T01:51:01.878Z,102079.34
2022-10-18T01:53:34.692Z,102076.64
2022-10-18T01:56:32.006Z,102081.71
2022-10-18T01:59:22.177Z,102082.86
2022-10-18T02:01:56.045Z,102089.16
2022-10-18T02:04:32.354Z,102090.24
2022-10-18T02:07:42.506Z,102093.46
2022-10-18T02:12:46.822Z,102093.62
2022-10-18T02:15:26.378Z,102095.96
2022-10-18T02:17:56.319Z,102101.98
2022-10-18T02:20:29.138Z,102103.64
2022-10-18T02:22:59.834Z,102103.35
2022-10-18T02:25:31.607Z,102100.80
2022-10-18T02:31:03.239Z,102104.46
2022-10-18T02:34:00.739Z,102109.70
2022-10-18T02:36:37.351Z,102107.48
2022-10-18T02:39:11.509Z,102093.94
2022-10-18T02:42:08.704Z,102094.93
2022-10-18T02:44:37.947Z,102095.13
2022-10-18T02:47:07.962Z,102094.70
2022-10-18T02:49:36.139Z,102111.17
2022-10-18T02:52:04.495Z,102126.66
2022-10-18T02:54:33.719Z,102138.57
2022-10-18T02:57:01.866Z,102134.58
2022-10-18T02:59:29.999Z,102137.80
2022-10-18T03:01:58.152Z,102137.09
2022-10-18T03:06:54.591Z,102144.17
2022-10-18T03:09:28.773Z,102140.35
2022-10-18T03:11:57.646Z,102144.34
2022-10-18T03:14:25.754Z,102135.69
2022-10-18T03:16:53.922Z,102137.38
2022-10-18T03:19:22.064Z,102146.64
2022-10-18T03:21:50.222Z,102149.40
2022-10-18T03:24:18.371Z,102149.10
2022-10-18T03:26:46.695Z,102158.98
2022-10-18T03:29:14.802Z,102162.98
2022-10-18T03:31:48.219Z,102152.89
2022-10-18T03:34:17.910Z,102148.11
2022-10-18T03:36:46.059Z,102152.02
2022-10-18T03:39:18.182Z,102151.76
2022-10-18T03:41:46.409Z,102146.77
2022-10-18T03:44:14.547Z,102152.16
2022-10-18T03:46:42.632Z,102157.27
2022-10-18T03:49:36.426Z,102157.31
2022-10-18T03:52:04.570Z,102147.82
2022-10-18T03:54:32.742Z,102154.08
2022-10-18T03:57:05.402Z,102155.02
2022-10-18T03:59:59.248Z,102147.36
2022-10-18T04:02:27.392Z,102144.16
2022-10-18T04:05:20.557Z,102151.85
2022-10-18T04:07:48.699Z,102156.85
2022-10-18T04:10:16.909Z,102154.04
2022-10-18T04:13:10.429Z,102160.84
2022-10-18T04:15:38.826Z,102158.12
2022-10-18T04:18:32.026Z,102181.37
2022-10-18T04:21:25.338Z,102193.40
2022-10-18T04:23:53.516Z,102192.39
2022-10-18T04:26:21.937Z,102196.30
2022-10-18T04:29:15.224Z,102205.09
2022-10-18T04:31:49.004Z,102191.35
2022-10-18T04:34:17.276Z,102182.14
2022-10-18T04:37:10.849Z,102173.33
2022-10-18T04:39:39.090Z,102185.27
2022-10-18T04:42:32.365Z,102175.17
2022-10-18T04:45:00.492Z,102173.61
2022-10-18T04:47:54.169Z,102181.47
2022-10-18T04:50:22.432Z,102180.89
2022-10-18T04:53:17.900Z,102176.73
2022-10-18T04:55:51.261Z,102161.49
2022-10-18T04:58:19.371Z,102182.84
2022-10-18T05:00:48.013Z,102193.81
2022-10-18T05:03:16.648Z,102190.93
2022-10-18T05:06:11.092Z,102183.84
2022-10-18T05:08:39.336Z,102180.99
2022-10-18T05:11:07.458Z,102171.73
2022-10-18T05:14:01.381Z,102182.19
2022-10-18T05:16:29.554Z,102180.30
2022-10-18T05:18:57.765Z,102193.63
2022-10-18T05:21:25.931Z,102216.77
2022-10-18T05:23:57.058Z,102216.34
2022-10-18T05:26:25.232Z,102218.98
2022-10-18T05:28:53.528Z,102215.30
2022-10-18T05:31:21.867Z,102215.70
2022-10-18T05:33:57.247Z,102214.80
2022-10-18T05:36:26.459Z,102222.05
2022-10-18T05:38:56.299Z,102219.54
2022-10-18T05:41:25.105Z,102220.65
2022-10-18T05:43:53.421Z,102219.63
2022-10-18T05:46:21.560Z,102219.38
2022-10-18T05:49:16.228Z,102221.98
2022-10-18T05:51:44.315Z,102220.29
2022-10-18T05:54:37.263Z,102217.40
2022-10-18T05:57:05.457Z,102224.44
2022-10-18T05:59:33.596Z,102209.52
2022-10-18T06:02:01.772Z,102219.13
2022-10-18T06:04:29.957Z,102208.10
2022-10-18T06:06:58.087Z,102207.36
2022-10-18T06:09:30.823Z,102205.05
2022-10-18T06:11:58.968Z,102219.95
2022-10-18T06:14:27.044Z,102229.60
2022-10-18T06:16:56.893Z,102229.41
2022-10-18T06:19:50.127Z,102228.22
2022-10-18T06:22:18.214Z,102231.67
2022-10-18T06:25:11.636Z,102240.33
2022-10-18T06:27:39.953Z,102235.96
2022-10-18T06:30:08.942Z,102236.98
2022-10-18T06:32:37.046Z,102233.29
2022-10-18T06:35:30.053Z,102233.40
2022-10-18T06:37:58.406Z,102235.00
2022-10-18T06:40:26.706Z,102235.61
2022-10-18T06:43:21.642Z,102233.73
2022-10-18T06:45:51.660Z,102235.63
2022-10-18T06:48:21.193Z,102233.69
2022-10-18T06:51:15.404Z,102229.98
2022-10-18T06:53:48.567Z,102231.50
2022-10-18T06:56:27.218Z,102242.66
2022-10-18T06:58:55.499Z,102245.67
2022-10-18T07:01:23.747Z,102243.94
2022-10-18T07:03:53.938Z,102232.48
2022-10-18T07:06:23.714Z,102232.73
2022-10-18T07:08:55.351Z,102233.84
2022-10-18T07:11:25.997Z,102234.78
2022-10-18T07:14:02.425Z,102240.05
2022-10-18T07:16:32.222Z,102240.46
2022-10-18T07:19:00.625Z,102238.20
2022-10-18T07:21:28.936Z,102236.64
2022-10-18T07:23:57.517Z,102226.09
2022-10-18T07:26:29.415Z,102245.95
2022-10-18T07:29:09.892Z,102247.67
2022-10-18T07:31:39.281Z,102256.58
2022-10-18T07:34:09.252Z,102259.01
2022-10-18T07:36:37.662Z,102263.78
2022-10-18T07:39:06.552Z,102265.72
2022-10-18T07:41:35.107Z,102268.27
2022-10-18T07:44:04.393Z,102270.17
2022-10-18T07:46:32.685Z,102269.09
2022-10-18T07:49:01.117Z,102273.38
2022-10-18T07:51:31.080Z,102274.33
2022-10-18T07:54:00.035Z,102275.10
2022-10-18T07:56:28.428Z,102268.19
2022-10-18T07:58:57.249Z,102271.17
2022-10-18T08:01:25.741Z,102272.66
2022-10-18T08:03:54.173Z,102277.40
2022-10-18T08:06:23.510Z,102271.52
2022-10-18T08:08:52.444Z,102264.38
2022-10-18T08:11:23.584Z,102268.92
2022-10-18T08:13:53.252Z,102267.32
2022-10-18T08:16:27.451Z,102256.05
2022-10-18T08:18:59.139Z,102259.34
2022-10-18T08:21:27.426Z,102259.38
2022-10-18T08:23:55.639Z,102259.66
2022-10-18T08:26:24.077Z,102263.61
2022-10-18T08:29:10.194Z,102260.48
2022-10-18T08:31:40.459Z,102264.44
2022-10-18T08:34:08.598Z,102267.77
2022-10-18T08:36:37.641Z,102265.84
2022-10-18T08:39:05.796Z,102269.08
2022-10-18T08:41:48.914Z,102267.89
2022-10-18T08:44:23.333Z,102253.54
2022-10-18T08:47:05.024Z,102266.36
2022-10-18T08:49:47.029Z,102255.15
2022-10-18T08:52:21.502Z,102244.70
2022-10-18T08:55:02.163Z,102235.49
2022-10-18T09:06:38.870Z,102231.35
2022-10-18T09:09:20.642Z,102230.05
2022-10-18T09:11:51.617Z,102229.51
2022-10-18T09:14:50.063Z,102232.10
2022-10-18T09:17:21.534Z,102231.55
2022-10-18T09:20:20.123Z,102240.35
2022-10-18T09:23:20.257Z,102236.55
2022-10-18T09:26:02.300Z,102232.70
2022-10-18T09:28:45.710Z,102224.86
2022-10-18T09:31:58.437Z,102233.34
2022-10-18T09:34:34.953Z,102241.08
2022-10-18T09:37:04.590Z,102250.20
2022-10-18T09:39:38.037Z,102242.80
2022-10-18T09:42:12.958Z,102241.77
2022-10-18T09:44:56.278Z,102242.40
2022-10-18T09:47:39.966Z,102238.84
2022-10-18T09:50:32.538Z,102232.45
2022-10-18T09:53:16.053Z,102232.11
2022-10-18T09:55:59.266Z,102231.31
2022-10-18T09:58:41.569Z,102225.56
2022-10-18T10:01:13.246Z,102219.36
2022-10-18T10:03:42.651Z,102227.11
2022-10-18T10:06:15.341Z,102217.70
2022-10-18T10:08:48.781Z,102206.59
2022-10-18T10:11:30.713Z,102205.81
2022-10-18T10:14:09.488Z,102203.25
2022-10-18T10:17:07.303Z,102208.23
2022-10-18T10:19:57.061Z,102212.58
2022-10-18T10:22:29.457Z,102217.55
2022-10-18T10:24:57.750Z,102224.26
2022-10-18T10:27:43.626Z,102212.31
2022-10-18T10:30:27.182Z,102213.05
2022-10-18T10:32:56.646Z,102209.98
2022-10-18T10:36:00.397Z,102216.20
2022-10-18T10:38:30.942Z,102218.70
2022-10-18T10:41:00.078Z,102216.55
2022-10-18T10:43:39.396Z,102205.45
2022-10-18T10:46:08.178Z,102199.96
2022-10-18T10:49:27.530Z,102196.16
2022-10-18T10:52:02.446Z,102198.79
2022-10-18T10:54:50.355Z,102194.39
2022-10-18T10:57:24.177Z,102195.88
2022-10-18T10:59:55.439Z,102179.05
2022-10-18T11:02:32.474Z,102187.95
2022-10-18T11:05:23.791Z,102186.29
2022-10-18T11:07:56.839Z,102185.26
2022-10-18T11:10:31.281Z,102185.24
2022-10-18T11:13:08.291Z,102184.08
2022-10-18T11:15:43.769Z,102182.67
2022-10-18T11:18:34.789Z,102180.20
2022-10-18T11:21:21.797Z,102165.87
2022-10-18T11:23:50.281Z,102174.61
2022-10-18T11:26:24.459Z,102167.69
2022-10-18T11:29:02.139Z,102166.09
2022-10-18T11:31:41.886Z,102165.73
2022-10-18T11:34:43.724Z,102166.05
2022-10-18T11:37:44.916Z,102163.79
2022-10-18T11:40:57.949Z,102160.04
2022-10-18T11:44:01.830Z,102153.13
2022-10-18T11:46:47.026Z,102162.48
2022-10-18T11:49:32.535Z,102161.81
2022-10-18T11:52:18.323Z,102156.68
2022-10-18T11:55:13.920Z,102149.18
2022-10-18T11:57:49.568Z,102145.95
2022-10-18T12:00:32.788Z,102139.17
2022-10-18T12:03:12.151Z,102131.80
2022-10-18T12:05:43.640Z,102127.20
2022-10-18T12:08:16.679Z,102125.45
2022-10-18T12:11:06.630Z,102123.35
2022-10-18T12:13:43.416Z,102121.41
2022-10-18T12:16:13.343Z,102103.57
2022-10-18T12:19:14.180Z,102116.00
2022-10-18T12:21:43.392Z,102098.23
2022-10-18T12:24:20.517Z,102109.68
2022-10-18T12:26:52.011Z,102107.98
2022-10-18T12:29:35.937Z,102103.48
2022-10-18T12:32:13.242Z,102100.57
2022-10-18T12:34:46.383Z,102097.46
2022-10-18T12:37:39.286Z,102107.17
2022-10-18T12:40:20.470Z,102103.33
2022-10-18T12:42:52.849Z,102099.94
2022-10-18T12:45:48.813Z,102096.64
2022-10-18T12:48:33.637Z,102094.89
2022-10-18T12:51:15.153Z,102085.97
2022-10-18T12:53:46.762Z,102088.80
2022-10-18T12:56:30.191Z,102091.43
2022-10-18T12:59:16.592Z,102083.48
2022-10-18T13:01:51.223Z,102059.25
2022-10-18T13:04:32.643Z,102083.98
2022-10-18T13:07:32.100Z,102076.71
2022-10-18T13:10:13.023Z,102067.96
2022-10-18T13:12:44.237Z,102067.23
2022-10-18T13:15:44.631Z,102070.61
2022-10-18T13:18:26.686Z,102067.92
2022-10-18T13:21:17.534Z,102063.58
2022-10-18T13:24:24.418Z,102066.94
2022-10-18T13:27:04.063Z,102064.22
2022-10-18T13:30:27.781Z,102075.41
2022-10-18T13:32:59.089Z,102076.30
2022-10-18T13:35:55.839Z,102073.80
2022-10-18T13:38:56.055Z,102074.56
2022-10-18T13:41:29.164Z,102078.95
2022-10-18T13:44:28.965Z,102075.86
2022-10-18T13:46:57.228Z,102080.94
2022-10-18T13:49:38.915Z,102073.91
2022-10-18T13:52:22.882Z,102072.27
2022-10-18T13:55:17.086Z,102067.20
2022-10-18T13:58:22.201Z,102069.30
2022-10-18T14:01:18.669Z,102073.88
2022-10-18T14:04:01.245Z,102065.04
2022-10-18T14:06:37.455Z,102052.69
2022-10-18T14:09:39.916Z,102024.41
2022-10-18T14:12:31.136Z,102030.95
2022-10-18T14:15:14.941Z,102040.98
2022-10-18T14:18:05.257Z,102038.07
2022-10-18T14:20:55.218Z,102037.63
2022-10-18T14:23:35.328Z,102030.52
2022-10-18T14:26:19.897Z,102008.09
2022-10-18T14:29:16.160Z,102021.30
2022-10-18T14:31:55.166Z,102005.30
2022-10-18T14:34:24.005Z,102000.60
2022-10-18T14:36:52.354Z,102003.19
2022-10-18T14:39:29.187Z,102000.17
2022-10-18T14:41:58.585Z,102001.91
2022-10-18T14:44:30.213Z,102006.57
2022-10-18T14:47:04.513Z,102010.30
2022-10-18T14:49:32.878Z,102012.02
2022-10-18T14:52:01.584Z,101991.55
2022-10-18T14:54:36.605Z,102004.16
2022-10-18T14:57:07.169Z,101993.45
2022-10-18T14:59:58.705Z,101992.91
2022-10-18T15:02:30.803Z,101996.16
2022-10-18T15:05:06.981Z,101994.67
2022-10-18T15:07:35.990Z,101985.65
2022-10-18T15:10:05.925Z,102007.68
2022-10-18T15:12:37.128Z,102006.54
2022-10-18T15:15:19.896Z,101996.73
2022-10-18T15:17:49.622Z,101996.25
2022-10-18T15:20:28.757Z,101995.80
2022-10-18T15:23:24.739Z,101990.91
2022-10-18T15:26:12.837Z,101982.56
2022-10-18T15:28:51.503Z,101986.92
2022-10-18T15:31:29.442Z,101987.59
2022-10-18T15:34:10.734Z,101986.22
2022-10-18T15:36:39.458Z,101984.23
2022-10-18T15:39:24.471Z,101982.80
2022-10-18T15:41:54.194Z,101973.55
2022-10-18T15:44:34.858Z,101968.33
2022-10-18T15:47:29.745Z,101967.83
2022-10-18T15:49:59.142Z,101975.94
2022-10-18T15:52:38.094Z,101972.77
2022-10-18T15:55:33.215Z,101982.66
2022-10-18T15:58:12.279Z,101988.68
2022-10-18T16:00:42.224Z,101993.13
2022-10-18T16:03:10.714Z,101993.08
2022-10-18T16:05:39.502Z,101993.70
2022-10-18T16:08:18.843Z,101989.46
2022-10-18T16:10:47.008Z,101979.02
2022-10-18T16:13:15.081Z,101982.48
2022-10-18T16:15:43.278Z,101986.23
2022-10-18T16:18:17.808Z,101985.11
2022-10-18T16:20:47.890Z,101984.17
2022-10-18T16:23:19.136Z,101984.34
2022-10-18T16:25:47.833Z,101981.09
2022-10-18T16:28:19.364Z,101982.11
2022-10-18T16:31:00.152Z,101982.15
2022-10-18T16:33:28.435Z,101976.42
2022-10-18T16:35:57.626Z,101987.32
2022-10-18T16:38:32.611Z,101993.81
2022-10-18T16:41:07.364Z,101999.66
2022-10-18T16:43:36.022Z,102000.28
2022-10-18T16:46:04.923Z,101993.73
2022-10-18T16:48:33.726Z,101991.35
2022-10-18T16:51:02.318Z,101997.77
2022-10-18T16:53:30.624Z,102009.58
2022-10-18T16:56:01.175Z,102010.71
2022-10-18T16:58:31.553Z,102009.86
2022-10-18T17:01:01.892Z,102009.56
2022-10-18T17:03:32.338Z,102011.70
2022-10-18T17:06:00.499Z,102019.60
2022-10-18T17:08:33.618Z,102024.11
2022-10-18T17:11:02.318Z,102025.63
2022-10-18T17:13:30.711Z,102028.20
2022-10-18T17:16:00.680Z,102024.51
2022-10-18T17:18:30.739Z,102024.01
2022-10-18T17:21:03.321Z,102020.88
2022-10-18T17:23:31.790Z,102026.93
2022-10-18T17:26:07.147Z,102025.19
2022-10-18T17:28:43.606Z,102028.70
2022-10-18T17:31:14.997Z,102030.77
2022-10-18T17:33:43.295Z,102031.77
2022-10-18T17:36:12.682Z,102031.27
2022-10-18T17:38:41.123Z,102032.23
2022-10-18T17:41:11.302Z,102031.27
2022-10-18T17:46:14.520Z,102040.77
2022-10-18T17:48:43.065Z,102037.25
2022-10-18T17:51:14.322Z,102041.55
2022-10-18T17:53:43.264Z,102041.77
2022-10-18T17:56:12.113Z,102039.92
2022-10-18T17:58:43.265Z,102037.02
2022-10-18T18:01:20.297Z,102037.80
2022-10-18T18:03:48.495Z,102033.86
2022-10-18T18:06:20.772Z,102037.10
2022-10-18T18:08:49.975Z,102032.50
2022-10-18T18:11:18.292Z,102031.39
2022-10-18T18:13:46.483Z,102032.49
2022-10-18T18:16:18.972Z,102028.84
2022-10-18T18:18:49.807Z,102030.45
2022-10-18T18:21:19.034Z,102023.40
2022-10-18T18:23:48.715Z,102011.90
2022-10-18T18:26:19.020Z,102010.16
2022-10-18T18:28:47.588Z,102007.48
2022-10-18T18:31:18.900Z,102013.64
2022-10-18T18:33:47.211Z,102012.90
2022-10-18T18:36:15.403Z,102017.48
2022-10-18T18:38:44.071Z,102017.92
2022-10-18T18:41:12.751Z,102020.27
2022-10-18T18:43:46.952Z,102014.95
2022-10-18T18:46:15.621Z,102011.05
2022-10-18T18:48:43.912Z,102016.08
2022-10-18T18:51:15.261Z,102014.64
2022-10-18T18:53:45.225Z,102013.55
2022-10-18T18:58:54.028Z,102007.33
2022-10-18T19:01:25.296Z,102007.14
2022-10-18T19:03:55.915Z,102003.45
2022-10-18T19:06:25.531Z,102001.10
2022-10-18T19:09:00.337Z,101997.57
2022-10-18T19:11:33.512Z,101996.83
2022-10-18T19:14:03.650Z,101994.00
2022-10-18T19:16:34.136Z,101990.10
2022-10-18T19:19:06.354Z,101989.84
2022-10-18T19:21:37.579Z,101995.03
2022-10-18T19:24:06.843Z,101995.42
2022-10-18T19:26:45.730Z,101995.40
2022-10-18T19:29:21.405Z,101992.83
2022-10-18T19:31:52.064Z,101993.35
2022-10-18T19:34:21.243Z,101992.69
2022-10-18T19:36:51.188Z,101989.76
2022-10-18T19:39:21.867Z,101989.85
2022-10-18T19:41:53.051Z,101991.79
2022-10-18T19:44:23.370Z,101995.49
2022-10-18T19:46:51.974Z,101992.36
2022-10-18T19:49:20.510Z,101987.95
2022-10-18T19:51:48.931Z,101988.84
2022-10-18T19:54:17.168Z,101986.73
2022-10-18T19:56:45.604Z,101987.69
2022-10-18T19:59:16.306Z,101987.63
2022-10-18T20:01:45.475Z,101979.86
2022-10-18T20:04:14.743Z,101968.29
2022-10-18T20:06:43.183Z,101971.02
2022-10-18T20:09:16.151Z,101973.17
2022-10-18T20:11:48.303Z,101967.77
2022-10-18T20:14:16.694Z,101971.44
2022-10-18T20:16:44.943Z,101971.17
2022-10-18T20:19:13.218Z,101971.70
2022-10-18T20:21:41.479Z,101963.92
2022-10-18T20:24:11.694Z,101975.95
2022-10-18T20:26:40.152Z,101973.39
2022-10-18T20:29:08.600Z,101971.83
2022-10-18T20:31:39.201Z,101960.81
2022-10-18T20:34:11.987Z,101958.65
2022-10-18T20:36:40.655Z,101957.90
2022-10-18T20:39:09.842Z,101961.65
2022-10-18T20:41:41.500Z,101958.69
2022-10-18T20:44:14.345Z,101958.00
2022-10-18T20:46:44.311Z,101954.58
2022-10-18T20:49:16.514Z,101951.24
2022-10-18T20:51:45.946Z,101951.20
2022-10-18T20:54:14.615Z,101946.08
2022-10-18T20:56:43.033Z,101927.31
2022-10-18T20:59:11.721Z,101935.98
2022-10-18T21:01:40.168Z,101935.08
2022-10-18T21:04:10.286Z,101939.04
2022-10-18T21:06:43.827Z,101940.73
2022-10-18T21:09:13.523Z,101926.80
2022-10-18T21:11:45.080Z,101935.63
2022-10-18T21:14:19.279Z,101936.23
2022-10-18T21:16:48.382Z,101931.48
2022-10-18T21:19:23.735Z,101934.80
2022-10-18T21:21:54.888Z,101938.55
2022-10-18T21:24:25.558Z,101942.67
2022-10-18T21:26:54.930Z,101933.77
2022-10-18T21:29:27.130Z,101929.79
2022-10-18T21:31:59.449Z,101931.69
2022-10-18T21:34:27.807Z,101930.29
2022-10-18T21:36:56.803Z,101921.33
2022-10-18T21:39:25.174Z,101914.09
2022-10-18T21:41:54.299Z,101922.15
2022-10-18T21:44:22.548Z,101918.71
2022-10-18T21:46:50.941Z,101908.56
2022-10-18T21:49:19.269Z,101908.70
2022-10-18T21:51:47.574Z,101905.00
2022-10-18T21:54:16.818Z,101908.61
2022-10-18T21:56:45.457Z,101902.77
2022-10-18T21:59:14.219Z,101906.08
2022-10-18T22:01:44.340Z,101902.89
2022-10-18T22:04:22.318Z,101896.96
2022-10-18T22:06:51.031Z,101896.78
2022-10-18T22:09:21.500Z,101894.48
2022-10-18T22:11:53.483Z,101889.67
2022-10-18T22:14:22.278Z,101850.97
2022-10-18T22:16:51.321Z,101871.34
2022-10-18T22:19:19.820Z,101867.10
2022-10-18T22:21:48.009Z,101872.33
2022-10-18T22:24:16.228Z,101870.09
2022-10-18T22:26:45.784Z,101867.45
2022-10-18T22:29:17.096Z,101866.26
2022-10-18T22:31:52.732Z,101863.10
2022-10-18T22:34:29.281Z,101864.24
2022-10-18T22:36:57.800Z,101861.33
2022-10-18T22:39:27.077Z,101859.36
2022-10-18T22:41:56.773Z,101853.09
2022-10-18T22:44:25.147Z,101857.02
2022-10-18T22:46:53.373Z,101848.83
2022-10-18T22:49:21.764Z,101845.55
2022-10-18T22:51:50.296Z,101845.95
2022-10-18T22:54:18.653Z,101844.48
2022-10-18T22:56:46.932Z,101842.77
2022-10-18T22:59:15.187Z,101836.67
2022-10-18T23:01:43.520Z,101837.90
2022-10-18T23:04:11.728Z,101824.47
2022-10-18T23:06:40.272Z,101826.02
2022-10-18T23:09:11.103Z,101830.15
2022-10-18T23:11:39.434Z,101827.30
2022-10-18T23:14:07.715Z,101822.55
2022-10-18T23:16:36.056Z,101831.30
2022-10-18T23:19:04.387Z,101823.11
2022-10-18T23:21:33.866Z,101821.31
2022-10-18T23:24:02.174Z,101803.92
2022-10-18T23:26:30.495Z,101818.21
2022-10-18T23:28:58.888Z,101827.05
2022-10-18T23:31:30.189Z,101826.19
2022-10-18T23:34:02.075Z,101824.72
2022-10-18T23:36:32.140Z,101822.06
2022-10-18T23:39:00.566Z,101827.71
2022-10-18T23:41:28.972Z,101834.21
2022-10-18T23:43:57.239Z,101854.69
2022-10-18T23:46:25.653Z,101851.09
2022-10-18T23:48:53.868Z,101853.08
2022-10-18T23:51:22.052Z,101850.23
2022-10-18T23:53:50.317Z,101853.87
2022-10-18T23:56:18.585Z,101847.18
2022-10-18T23:58:46.873Z,101846.70
